San Carlos Park, Florida
Current Conditions -  °F | °C
As of 6:53 PM on Friday 21 Nov 2014 (Local Time) from KFMY Reporting Station
Overcast Overcast  
Wind Chill: 68°   Ceiling: 4800
Heat Index: 68°   Visibility: 10mi
Dew Point: 60°   Wind: 12mph
Humidity: 76%   Direction: 60°ENE
Pressure: 30.17"   Gusts: 21mph
Location:  26.6372°N, 81.8725°W
Report Text: KFMY 212353Z 06010G18KT 10SM BKN048 OVC060 20/16 A3017 RMK AO2 SLP220 60000 T02000156 10222 20200 52010
Loading
Personal Weather Stations






























Interactive Weather Map New forecast layout! Learn more

10-Day Weather Forecast

Advertisements
Track Severe Weather on mobile